createdAt,value
2023-04-18T00:00:57.245Z,21.70
2023-04-18T00:05:59.363Z,21.70
2023-04-18T00:11:01.407Z,21.80
2023-04-18T00:16:04.194Z,21.60
2023-04-18T00:21:06.906Z,21.50
2023-04-18T00:26:09.150Z,21.40
2023-04-18T00:31:11.758Z,21.20
2023-04-18T00:36:13.797Z,21.10
2023-04-18T00:41:16.732Z,21.50
2023-04-18T00:46:19.196Z,21.00
2023-04-18T00:51:21.713Z,20.90
2023-04-18T00:56:24.177Z,21.00
2023-04-18T01:01:26.402Z,21.00
2023-04-18T01:06:29.117Z,21.00
2023-04-18T01:11:31.610Z,21.00
2023-04-18T01:16:34.207Z,21.00
2023-04-18T01:21:37.322Z,21.10
2023-04-18T01:26:40.250Z,21.20
2023-04-18T01:31:42.321Z,21.20
2023-04-18T01:36:44.957Z,21.30
2023-04-18T01:41:47.298Z,21.50
2023-04-18T01:46:51.632Z,21.70
2023-04-18T01:51:53.854Z,22.80
2023-04-18T01:56:56.333Z,22.90
2023-04-18T02:01:59.004Z,22.90
2023-04-18T02:07:01.277Z,23.80
2023-04-18T02:12:04.981Z,22.80
2023-04-18T02:17:07.025Z,22.70
2023-04-18T02:22:09.126Z,22.70
2023-04-18T02:27:12.885Z,22.80
2023-04-18T02:32:14.969Z,23.00
2023-04-18T02:37:18.480Z,23.10
2023-04-18T02:42:20.573Z,23.40
2023-04-18T02:47:22.696Z,23.30
2023-04-18T02:52:25.391Z,23.80
2023-04-18T02:57:27.621Z,23.90
2023-04-18T03:02:30.945Z,24.20
2023-04-18T03:07:34.256Z,23.50
2023-04-18T03:12:37.886Z,23.60
2023-04-18T03:17:40.163Z,23.70
2023-04-18T03:22:43.065Z,23.70
2023-04-18T03:27:45.984Z,23.70
2023-04-18T03:32:49.599Z,23.70
2023-04-18T03:37:51.806Z,23.60
2023-04-18T03:42:56.236Z,23.60
2023-04-18T03:47:58.421Z,23.60
2023-04-18T03:53:01.177Z,23.50
2023-04-18T03:58:06.686Z,23.40
2023-04-18T04:03:09.290Z,23.40
2023-04-18T04:08:11.627Z,23.20
2023-04-18T04:13:13.910Z,23.30
2023-04-18T04:23:22.802Z,23.10
2023-04-18T04:28:26.215Z,23.10
2023-04-18T04:33:29.318Z,23.10
2023-04-18T04:38:36.220Z,23.00
2023-04-18T04:43:41.140Z,22.90
2023-04-18T04:48:44.303Z,22.80
2023-04-18T04:53:46.404Z,22.70
2023-04-18T04:58:49.551Z,22.60
2023-04-18T05:03:53.122Z,22.70
2023-04-18T05:08:57.467Z,22.60
2023-04-18T05:13:59.617Z,22.70
2023-04-18T05:19:01.803Z,23.30
2023-04-18T05:24:04.337Z,22.50
2023-04-18T05:29:06.521Z,22.60
2023-04-18T05:34:08.631Z,22.40
2023-04-18T05:39:10.815Z,22.40
2023-04-18T05:44:12.845Z,22.40
2023-04-18T05:49:15.196Z,22.50
2023-04-18T05:54:17.501Z,22.50
2023-04-18T05:59:20.803Z,22.60
2023-04-18T06:04:23.049Z,22.60
2023-04-18T06:09:25.225Z,22.70
2023-04-18T06:14:27.909Z,22.90
2023-04-18T06:19:30.001Z,22.50
2023-04-18T06:24:32.215Z,22.40
2023-04-18T06:29:36.074Z,22.40
2023-04-18T06:34:40.580Z,22.60
2023-04-18T06:39:42.716Z,22.30
2023-04-18T06:44:44.783Z,22.20
2023-04-18T06:49:47.177Z,22.20
2023-04-18T06:54:50.741Z,22.00
2023-04-18T06:59:52.828Z,22.10
2023-04-18T07:04:54.964Z,22.20
2023-04-18T07:09:57.096Z,22.20
2023-04-18T07:14:59.116Z,22.20
2023-04-18T07:20:01.315Z,22.20
2023-04-18T07:25:06.309Z,22.10
2023-04-18T07:30:08.890Z,22.20
2023-04-18T07:35:11.439Z,22.20
2023-04-18T07:40:13.752Z,22.20
2023-04-18T07:45:15.912Z,22.10
2023-04-18T07:50:18.446Z,22.10
2023-04-18T07:55:20.629Z,21.80
2023-04-18T08:00:22.819Z,21.80
2023-04-18T08:05:24.888Z,21.40
2023-04-18T08:10:27.207Z,21.40
2023-04-18T08:15:31.623Z,21.50
2023-04-18T08:20:36.302Z,21.50
2023-04-18T08:25:38.366Z,21.50
2023-04-18T08:30:40.400Z,21.50
2023-04-18T08:35:44.171Z,21.20
2023-04-18T08:40:46.517Z,21.00
2023-04-18T08:45:49.151Z,21.00
2023-04-18T08:50:57.022Z,21.20
2023-04-18T08:56:00.349Z,20.80
2023-04-18T09:01:05.450Z,20.80
2023-04-18T09:06:13.798Z,20.90
2023-04-18T09:11:23.274Z,20.40
2023-04-18T09:16:27.699Z,20.20
2023-04-18T09:21:30.116Z,20.10
2023-04-18T09:26:34.006Z,20.10
2023-04-18T09:31:51.309Z,20.10
2023-04-18T09:37:19.651Z,19.70
2023-04-18T09:42:22.157Z,20.00
2023-04-18T09:47:24.170Z,20.20
2023-04-18T09:52:26.541Z,20.00
2023-04-18T09:57:30.085Z,19.60
2023-04-18T10:02:35.050Z,19.60
2023-04-18T10:07:37.681Z,19.40
2023-04-18T10:12:41.349Z,18.90
2023-04-18T10:18:04.452Z,19.10
2023-04-18T10:23:28.069Z,19.10
2023-04-18T10:29:03.966Z,18.70
2023-04-18T10:34:06.988Z,18.50
2023-04-18T10:39:22.278Z,18.60
2023-04-18T10:44:24.535Z,19.00
2023-04-18T10:49:28.467Z,18.60
2023-04-18T10:55:01.837Z,18.40
2023-04-18T11:00:05.521Z,18.90
2023-04-18T11:05:08.235Z,18.90
2023-04-18T11:10:10.752Z,17.50
2023-04-18T11:15:15.096Z,17.20
2023-04-18T11:20:17.104Z,16.60
2023-04-18T11:25:20.072Z,16.50
2023-04-18T11:30:22.117Z,16.40
2023-04-18T11:35:24.180Z,16.70
2023-04-18T11:40:26.337Z,15.80
2023-04-18T11:45:28.531Z,15.90
2023-04-18T11:50:35.510Z,15.60
2023-04-18T11:55:37.632Z,15.30
2023-04-18T12:00:42.053Z,15.20
2023-04-18T12:05:44.955Z,15.20
2023-04-18T12:10:47.178Z,15.00
2023-04-18T12:15:49.192Z,14.90
2023-04-18T12:20:54.082Z,14.30
2023-04-18T12:26:00.576Z,14.50
2023-04-18T12:31:05.299Z,14.10
2023-04-18T12:36:11.113Z,14.30
2023-04-18T12:41:13.230Z,14.00
2023-04-18T12:46:15.288Z,13.60
2023-04-18T12:51:17.477Z,13.30
2023-04-18T12:56:19.509Z,12.50
2023-04-18T13:01:21.988Z,12.80
2023-04-18T13:06:24.565Z,12.70
2023-04-18T13:11:28.552Z,12.80
2023-04-18T13:16:31.156Z,12.80
2023-04-18T13:21:33.261Z,12.50
2023-04-18T13:26:37.479Z,12.10
2023-04-18T13:31:39.542Z,12.10
2023-04-18T13:36:41.719Z,11.20
2023-04-18T13:41:44.194Z,11.20
2023-04-18T13:46:46.248Z,11.20
2023-04-18T13:51:50.440Z,11.30
2023-04-18T14:01:55.316Z,11.20
2023-04-18T14:06:57.518Z,10.80
2023-04-18T14:11:59.588Z,10.80
2023-04-18T14:17:01.696Z,10.80
2023-04-18T14:22:07.775Z,10.80
2023-04-18T14:27:09.874Z,10.90
2023-04-18T14:32:12.254Z,11.00
2023-04-18T14:37:15.643Z,11.00
2023-04-18T14:42:18.535Z,11.20
2023-04-18T14:47:20.778Z,11.20
2023-04-18T14:52:22.936Z,11.40
2023-04-18T14:57:25.284Z,11.20
2023-04-18T15:02:27.459Z,11.20
2023-04-18T15:07:30.266Z,11.30
2023-04-18T15:12:32.341Z,10.90
2023-04-18T15:17:34.557Z,11.10
2023-04-18T15:22:37.029Z,10.90
2023-04-18T15:27:39.051Z,11.10
2023-04-18T15:32:42.117Z,10.90
2023-04-18T15:37:44.338Z,11.10
2023-04-18T15:42:46.530Z,11.10
2023-04-18T15:47:48.905Z,11.20
2023-04-18T15:52:51.055Z,11.10
2023-04-18T15:57:53.111Z,10.60
2023-04-18T16:02:55.184Z,10.50
2023-04-18T16:07:58.814Z,10.30
2023-04-18T16:13:00.881Z,10.20
2023-04-18T16:18:02.930Z,10.30
2023-04-18T16:23:05.137Z,10.40
2023-04-18T16:28:07.219Z,10.50
2023-04-18T16:33:09.440Z,10.40
2023-04-18T16:38:11.527Z,10.60
2023-04-18T16:43:13.520Z,10.90
2023-04-18T16:48:15.631Z,10.80
2023-04-18T16:53:17.702Z,10.80
2023-04-18T16:58:21.242Z,10.80
2023-04-18T17:03:23.495Z,11.00
2023-04-18T17:08:28.476Z,11.10
2023-04-18T17:13:31.410Z,11.10
2023-04-18T17:18:36.747Z,10.80
2023-04-18T17:23:41.565Z,10.70
2023-04-18T17:28:43.653Z,10.90
2023-04-18T17:33:45.909Z,10.80
2023-04-18T17:38:50.954Z,10.60
2023-04-18T17:43:53.246Z,10.70
2023-04-18T17:53:57.666Z,10.80
2023-04-18T17:58:59.703Z,10.70
2023-04-18T18:04:02.621Z,10.80
2023-04-18T18:09:04.810Z,10.80
2023-04-18T18:14:06.925Z,10.90
2023-04-18T18:19:08.987Z,11.20
2023-04-18T18:24:11.064Z,11.40
2023-04-18T18:29:13.640Z,11.60
2023-04-18T18:34:16.925Z,11.80
2023-04-18T18:39:18.976Z,11.90
2023-04-18T18:44:21.068Z,12.20
2023-04-18T18:49:23.099Z,12.20
2023-04-18T18:54:25.903Z,12.50
2023-04-18T18:59:28.143Z,12.70
2023-04-18T19:04:30.265Z,12.90
2023-04-18T19:09:32.462Z,13.00
2023-04-18T19:14:34.553Z,13.20
2023-04-18T19:19:36.741Z,13.40
2023-04-18T19:24:38.794Z,13.70
2023-04-18T19:29:40.887Z,13.60
2023-04-18T19:34:42.959Z,14.00
2023-04-18T19:39:45.009Z,14.60
2023-04-18T19:44:47.000Z,14.10
2023-04-18T19:49:49.165Z,14.20
2023-04-18T19:54:52.267Z,14.40
2023-04-18T19:59:54.603Z,14.50
2023-04-18T20:04:56.800Z,14.60
2023-04-18T20:09:59.048Z,14.70
2023-04-18T20:15:01.420Z,14.80
2023-04-18T20:20:04.481Z,15.00
2023-04-18T20:35:11.861Z,15.40
2023-04-18T20:40:14.835Z,15.60
2023-04-18T20:45:16.832Z,15.70
2023-04-18T20:50:20.481Z,15.80
2023-04-18T20:55:22.577Z,15.90
2023-04-18T21:00:24.668Z,16.00
2023-04-18T21:10:29.164Z,16.20
2023-04-18T21:15:31.129Z,16.30
2023-04-18T21:20:35.943Z,16.40
2023-04-18T21:25:38.025Z,16.50
2023-04-18T21:30:40.143Z,16.50
2023-04-18T21:35:42.253Z,16.70
2023-04-18T21:40:44.298Z,16.70
2023-04-18T21:45:46.369Z,16.90
2023-04-18T21:50:53.555Z,17.00
2023-04-18T21:55:55.567Z,17.00
2023-04-18T22:00:57.690Z,17.10
2023-04-18T22:06:01.947Z,17.20
2023-04-18T22:11:04.788Z,17.30
2023-04-18T22:16:09.378Z,17.50
2023-04-18T22:21:11.677Z,17.50
2023-04-18T22:26:13.683Z,17.50
2023-04-18T22:31:15.772Z,17.60
2023-04-18T22:36:17.868Z,17.40
2023-04-18T22:41:20.352Z,17.40
2023-04-18T22:46:22.664Z,17.40
2023-04-18T22:51:24.710Z,17.50
2023-04-18T22:56:26.708Z,17.60
2023-04-18T23:01:28.804Z,17.50
2023-04-18T23:06:31.391Z,17.60
2023-04-18T23:11:33.387Z,17.60
2023-04-18T23:16:35.374Z,17.60
2023-04-18T23:21:37.415Z,17.60
2023-04-18T23:26:39.510Z,17.80
2023-04-18T23:31:41.569Z,17.80
2023-04-18T23:36:43.553Z,18.00
2023-04-18T23:41:45.633Z,18.20
2023-04-18T23:46:47.776Z,18.00
2023-04-18T23:51:49.971Z,18.30
2023-04-18T23:56:51.936Z,18.50
